sensor_id;sensor_type;location;lat;lon;timestamp;P1;durP1;ratioP1;P2;durP2;ratioP2
37785;SDS011;23625;48.784;9.336;2023-03-03T00:01:30;87.65;;;31.02;;
37785;SDS011;23625;48.784;9.336;2023-03-03T00:03:56;90.32;;;31.35;;
37785;SDS011;23625;48.784;9.336;2023-03-03T00:06:23;83.50;;;30.63;;
37785;SDS011;23625;48.784;9.336;2023-03-03T00:08:49;80.68;;;31.50;;
37785;SDS011;23625;48.784;9.336;2023-03-03T00:11:15;89.65;;;29.60;;
37785;SDS011;23625;48.784;9.336;2023-03-03T00:16:13;78.88;;;29.20;;
37785;SDS011;23625;48.784;9.336;2023-03-03T00:18:47;88.35;;;31.27;;
37785;SDS011;23625;48.784;9.336;2023-03-03T00:21:24;88.68;;;31.77;;
37785;SDS011;23625;48.784;9.336;2023-03-03T00:23:53;85.00;;;31.00;;
37785;SDS011;23625;48.784;9.336;2023-03-03T00:26:25;84.43;;;30.88;;
37785;SDS011;23625;48.784;9.336;2023-03-03T00:28:58;87.82;;;31.45;;
37785;SDS011;23625;48.784;9.336;2023-03-03T00:31:28;83.18;;;30.48;;
37785;SDS011;23625;48.784;9.336;2023-03-03T00:34:00;82.95;;;31.02;;
37785;SDS011;23625;48.784;9.336;2023-03-03T00:36:35;95.90;;;33.53;;
37785;SDS011;23625;48.784;9.336;2023-03-03T00:49:35;90.75;;;32.78;;
37785;SDS011;23625;48.784;9.336;2023-03-03T00:52:01;96.07;;;33.90;;
37785;SDS011;23625;48.784;9.336;2023-03-03T00:54:27;91.78;;;32.53;;
37785;SDS011;23625;48.784;9.336;2023-03-03T00:56:53;102.47;;;33.15;;
37785;SDS011;23625;48.784;9.336;2023-03-03T00:59:18;94.63;;;34.10;;
37785;SDS011;23625;48.784;9.336;2023-03-03T01:01:44;91.10;;;32.15;;
37785;SDS011;23625;48.784;9.336;2023-03-03T01:04:10;99.53;;;34.33;;
37785;SDS011;23625;48.784;9.336;2023-03-03T01:06:35;95.85;;;32.15;;
37785;SDS011;23625;48.784;9.336;2023-03-03T01:09:01;88.57;;;33.05;;
37785;SDS011;23625;48.784;9.336;2023-03-03T01:11:26;96.28;;;34.58;;
37785;SDS011;23625;48.784;9.336;2023-03-03T01:13:53;102.78;;;32.92;;
37785;SDS011;23625;48.784;9.336;2023-03-03T01:16:18;100.13;;;34.10;;
37785;SDS011;23625;48.784;9.336;2023-03-03T01:18:44;95.70;;;33.42;;
37785;SDS011;23625;48.784;9.336;2023-03-03T01:21:11;97.88;;;32.35;;
37785;SDS011;23625;48.784;9.336;2023-03-03T01:23:36;105.50;;;34.88;;
37785;SDS011;23625;48.784;9.336;2023-03-03T01:26:03;101.38;;;33.47;;
37785;SDS011;23625;48.784;9.336;2023-03-03T01:28:29;106.05;;;34.63;;
37785;SDS011;23625;48.784;9.336;2023-03-03T01:30:59;104.28;;;34.63;;
37785;SDS011;23625;48.784;9.336;2023-03-03T01:33:28;99.00;;;34.40;;
37785;SDS011;23625;48.784;9.336;2023-03-03T01:35:55;102.28;;;35.38;;
37785;SDS011;23625;48.784;9.336;2023-03-03T01:38:21;105.28;;;35.97;;
37785;SDS011;23625;48.784;9.336;2023-03-03T01:40:53;108.30;;;34.85;;
37785;SDS011;23625;48.784;9.336;2023-03-03T01:43:25;105.45;;;34.70;;
37785;SDS011;23625;48.784;9.336;2023-03-03T01:48:30;100.97;;;34.10;;
37785;SDS011;23625;48.784;9.336;2023-03-03T01:51:00;100.60;;;35.53;;
37785;SDS011;23625;48.784;9.336;2023-03-03T01:53:33;105.70;;;34.03;;
37785;SDS011;23625;48.784;9.336;2023-03-03T01:56:05;108.15;;;34.13;;
37785;SDS011;23625;48.784;9.336;2023-03-03T01:58:40;100.97;;;35.70;;
37785;SDS011;23625;48.784;9.336;2023-03-03T02:01:25;109.68;;;35.33;;
37785;SDS011;23625;48.784;9.336;2023-03-03T02:03:52;108.10;;;36.75;;
37785;SDS011;23625;48.784;9.336;2023-03-03T02:06:19;117.05;;;38.58;;
37785;SDS011;23625;48.784;9.336;2023-03-03T02:11:54;101.90;;;35.25;;
37785;SDS011;23625;48.784;9.336;2023-03-03T02:14:23;106.60;;;37.40;;
37785;SDS011;23625;48.784;9.336;2023-03-03T02:16:49;117.80;;;37.47;;
37785;SDS011;23625;48.784;9.336;2023-03-03T02:19:32;115.88;;;37.35;;
37785;SDS011;23625;48.784;9.336;2023-03-03T02:22:20;105.50;;;36.42;;
37785;SDS011;23625;48.784;9.336;2023-03-03T02:24:56;114.25;;;38.10;;
37785;SDS011;23625;48.784;9.336;2023-03-03T02:27:25;104.97;;;36.75;;
37785;SDS011;23625;48.784;9.336;2023-03-03T02:29:54;107.47;;;36.95;;
37785;SDS011;23625;48.784;9.336;2023-03-03T02:32:20;115.25;;;36.90;;
37785;SDS011;23625;48.784;9.336;2023-03-03T02:34:46;110.32;;;36.35;;
37785;SDS011;23625;48.784;9.336;2023-03-03T02:37:14;112.32;;;36.80;;
37785;SDS011;23625;48.784;9.336;2023-03-03T02:39:39;115.18;;;37.95;;
37785;SDS011;23625;48.784;9.336;2023-03-03T02:44:33;120.13;;;38.40;;
37785;SDS011;23625;48.784;9.336;2023-03-03T02:46:59;111.75;;;36.33;;
37785;SDS011;23625;48.784;9.336;2023-03-03T02:49:26;114.47;;;35.28;;
37785;SDS011;23625;48.784;9.336;2023-03-03T02:51:55;117.55;;;37.40;;
37785;SDS011;23625;48.784;9.336;2023-03-03T02:54:21;120.20;;;39.53;;
37785;SDS011;23625;48.784;9.336;2023-03-03T02:56:48;122.60;;;40.00;;
37785;SDS011;23625;48.784;9.336;2023-03-03T02:59:14;123.38;;;39.13;;
37785;SDS011;23625;48.784;9.336;2023-03-03T03:01:40;119.13;;;36.10;;
37785;SDS011;23625;48.784;9.336;2023-03-03T03:04:07;101.07;;;35.13;;
37785;SDS011;23625;48.784;9.336;2023-03-03T03:06:37;109.00;;;37.22;;
37785;SDS011;23625;48.784;9.336;2023-03-03T03:09:04;106.88;;;36.60;;
37785;SDS011;23625;48.784;9.336;2023-03-03T03:11:31;104.72;;;38.75;;
37785;SDS011;23625;48.784;9.336;2023-03-03T03:13:57;113.93;;;35.13;;
37785;SDS011;23625;48.784;9.336;2023-03-03T03:16:23;104.55;;;35.83;;
37785;SDS011;23625;48.784;9.336;2023-03-03T03:18:48;106.82;;;35.78;;
37785;SDS011;23625;48.784;9.336;2023-03-03T03:21:14;99.22;;;35.50;;
37785;SDS011;23625;48.784;9.336;2023-03-03T03:23:40;102.13;;;34.45;;
37785;SDS011;23625;48.784;9.336;2023-03-03T03:26:06;113.05;;;38.10;;
37785;SDS011;23625;48.784;9.336;2023-03-03T03:28:33;107.07;;;34.40;;
37785;SDS011;23625;48.784;9.336;2023-03-03T03:30:59;105.45;;;35.83;;
37785;SDS011;23625;48.784;9.336;2023-03-03T03:33:24;98.22;;;35.28;;
37785;SDS011;23625;48.784;9.336;2023-03-03T03:35:52;104.30;;;36.92;;
37785;SDS011;23625;48.784;9.336;2023-03-03T03:38:19;104.22;;;33.80;;
37785;SDS011;23625;48.784;9.336;2023-03-03T03:40:45;105.90;;;34.08;;
37785;SDS011;23625;48.784;9.336;2023-03-03T03:43:11;104.35;;;35.10;;
37785;SDS011;23625;48.784;9.336;2023-03-03T03:45:37;112.68;;;37.13;;
37785;SDS011;23625;48.784;9.336;2023-03-03T03:48:03;104.22;;;36.83;;
37785;SDS011;23625;48.784;9.336;2023-03-03T03:50:29;102.53;;;33.72;;
37785;SDS011;23625;48.784;9.336;2023-03-03T03:52:54;108.45;;;36.67;;
37785;SDS011;23625;48.784;9.336;2023-03-03T03:55:20;102.95;;;35.85;;
37785;SDS011;23625;48.784;9.336;2023-03-03T03:57:46;105.82;;;34.70;;
37785;SDS011;23625;48.784;9.336;2023-03-03T04:00:12;118.07;;;41.40;;
37785;SDS011;23625;48.784;9.336;2023-03-03T04:02:38;109.53;;;35.78;;
37785;SDS011;23625;48.784;9.336;2023-03-03T04:05:04;104.03;;;36.08;;
37785;SDS011;23625;48.784;9.336;2023-03-03T04:07:30;96.80;;;35.47;;
37785;SDS011;23625;48.784;9.336;2023-03-03T04:09:55;107.57;;;34.95;;
37785;SDS011;23625;48.784;9.336;2023-03-03T04:12:21;99.70;;;34.92;;
37785;SDS011;23625;48.784;9.336;2023-03-03T04:14:46;102.60;;;35.67;;
37785;SDS011;23625;48.784;9.336;2023-03-03T04:17:15;99.53;;;36.03;;
37785;SDS011;23625;48.784;9.336;2023-03-03T04:19:45;98.88;;;33.70;;
37785;SDS011;23625;48.784;9.336;2023-03-03T04:22:11;101.28;;;33.30;;
37785;SDS011;23625;48.784;9.336;2023-03-03T04:24:38;105.22;;;33.88;;
37785;SDS011;23625;48.784;9.336;2023-03-03T04:27:04;112.28;;;35.42;;
37785;SDS011;23625;48.784;9.336;2023-03-03T04:29:30;100.03;;;34.70;;
37785;SDS011;23625;48.784;9.336;2023-03-03T04:31:56;104.47;;;36.05;;
37785;SDS011;23625;48.784;9.336;2023-03-03T04:34:22;95.78;;;33.25;;
37785;SDS011;23625;48.784;9.336;2023-03-03T04:36:47;94.32;;;33.38;;
37785;SDS011;23625;48.784;9.336;2023-03-03T04:39:13;96.63;;;34.22;;
37785;SDS011;23625;48.784;9.336;2023-03-03T04:41:39;99.65;;;35.15;;
37785;SDS011;23625;48.784;9.336;2023-03-03T04:44:04;104.45;;;35.33;;
37785;SDS011;23625;48.784;9.336;2023-03-03T04:46:30;94.32;;;33.75;;
37785;SDS011;23625;48.784;9.336;2023-03-03T04:48:55;118.72;;;39.72;;
37785;SDS011;23625;48.784;9.336;2023-03-03T04:51:21;107.97;;;36.70;;
37785;SDS011;23625;48.784;9.336;2023-03-03T04:53:47;109.22;;;39.17;;
37785;SDS011;23625;48.784;9.336;2023-03-03T04:56:12;100.82;;;35.50;;
37785;SDS011;23625;48.784;9.336;2023-03-03T04:58:38;98.45;;;33.58;;
37785;SDS011;23625;48.784;9.336;2023-03-03T05:01:04;102.63;;;33.67;;
37785;SDS011;23625;48.784;9.336;2023-03-03T05:03:30;98.20;;;34.38;;
37785;SDS011;23625;48.784;9.336;2023-03-03T05:05:55;98.38;;;33.15;;
37785;SDS011;23625;48.784;9.336;2023-03-03T05:08:21;99.22;;;35.58;;
37785;SDS011;23625;48.784;9.336;2023-03-03T05:10:50;101.82;;;35.08;;
37785;SDS011;23625;48.784;9.336;2023-03-03T05:13:17;98.55;;;34.22;;
37785;SDS011;23625;48.784;9.336;2023-03-03T05:15:42;100.10;;;33.65;;
37785;SDS011;23625;48.784;9.336;2023-03-03T05:18:13;98.45;;;35.03;;
37785;SDS011;23625;48.784;9.336;2023-03-03T05:20:39;93.88;;;33.30;;
37785;SDS011;23625;48.784;9.336;2023-03-03T05:23:06;94.43;;;34.45;;
37785;SDS011;23625;48.784;9.336;2023-03-03T05:25:31;92.50;;;33.88;;
37785;SDS011;23625;48.784;9.336;2023-03-03T05:27:57;107.70;;;35.75;;
37785;SDS011;23625;48.784;9.336;2023-03-03T05:30:23;98.32;;;34.40;;
37785;SDS011;23625;48.784;9.336;2023-03-03T05:32:48;107.53;;;34.78;;
37785;SDS011;23625;48.784;9.336;2023-03-03T05:35:14;97.68;;;34.80;;
37785;SDS011;23625;48.784;9.336;2023-03-03T05:37:40;94.50;;;33.03;;
37785;SDS011;23625;48.784;9.336;2023-03-03T05:40:10;98.43;;;35.95;;
37785;SDS011;23625;48.784;9.336;2023-03-03T05:42:37;106.78;;;34.55;;
37785;SDS011;23625;48.784;9.336;2023-03-03T05:45:02;101.28;;;35.40;;
37785;SDS011;23625;48.784;9.336;2023-03-03T05:47:28;100.55;;;37.40;;
37785;SDS011;23625;48.784;9.336;2023-03-03T05:49:54;113.03;;;41.38;;
37785;SDS011;23625;48.784;9.336;2023-03-03T05:52:19;102.80;;;35.33;;
37785;SDS011;23625;48.784;9.336;2023-03-03T05:54:45;93.30;;;32.42;;
37785;SDS011;23625;48.784;9.336;2023-03-03T05:57:11;101.43;;;36.55;;
37785;SDS011;23625;48.784;9.336;2023-03-03T05:59:37;99.75;;;34.50;;
37785;SDS011;23625;48.784;9.336;2023-03-03T06:02:02;87.53;;;33.40;;
37785;SDS011;23625;48.784;9.336;2023-03-03T06:04:28;108.03;;;36.72;;
37785;SDS011;23625;48.784;9.336;2023-03-03T06:06:53;96.40;;;36.78;;
37785;SDS011;23625;48.784;9.336;2023-03-03T06:09:19;105.25;;;37.92;;
37785;SDS011;23625;48.784;9.336;2023-03-03T06:11:45;95.13;;;32.30;;
37785;SDS011;23625;48.784;9.336;2023-03-03T06:14:10;98.05;;;34.70;;
37785;SDS011;23625;48.784;9.336;2023-03-03T06:16:36;99.13;;;34.42;;
37785;SDS011;23625;48.784;9.336;2023-03-03T06:19:01;94.82;;;34.88;;
37785;SDS011;23625;48.784;9.336;2023-03-03T06:21:27;103.68;;;36.28;;
37785;SDS011;23625;48.784;9.336;2023-03-03T06:23:53;99.82;;;35.05;;
37785;SDS011;23625;48.784;9.336;2023-03-03T06:26:18;102.15;;;36.13;;
37785;SDS011;23625;48.784;9.336;2023-03-03T06:28:44;92.25;;;31.55;;
37785;SDS011;23625;48.784;9.336;2023-03-03T06:31:10;84.50;;;30.70;;
37785;SDS011;23625;48.784;9.336;2023-03-03T06:33:35;91.82;;;31.63;;
37785;SDS011;23625;48.784;9.336;2023-03-03T06:36:02;81.10;;;30.48;;
37785;SDS011;23625;48.784;9.336;2023-03-03T06:38:28;95.75;;;33.20;;
37785;SDS011;23625;48.784;9.336;2023-03-03T06:40:53;100.15;;;36.60;;
37785;SDS011;23625;48.784;9.336;2023-03-03T06:43:19;106.65;;;36.38;;
37785;SDS011;23625;48.784;9.336;2023-03-03T06:45:44;94.72;;;33.47;;
37785;SDS011;23625;48.784;9.336;2023-03-03T06:48:10;100.40;;;32.65;;
37785;SDS011;23625;48.784;9.336;2023-03-03T06:50:36;98.13;;;33.30;;
37785;SDS011;23625;48.784;9.336;2023-03-03T06:53:13;98.07;;;35.53;;
37785;SDS011;23625;48.784;9.336;2023-03-03T06:55:40;93.57;;;33.22;;
37785;SDS011;23625;48.784;9.336;2023-03-03T06:58:12;104.13;;;36.08;;
37785;SDS011;23625;48.784;9.336;2023-03-03T07:00:44;108.45;;;37.10;;
37785;SDS011;23625;48.784;9.336;2023-03-03T07:03:15;109.82;;;38.05;;
37785;SDS011;23625;48.784;9.336;2023-03-03T07:05:42;114.22;;;39.90;;
37785;SDS011;23625;48.784;9.336;2023-03-03T07:08:16;99.00;;;38.85;;
37785;SDS011;23625;48.784;9.336;2023-03-03T07:10:43;103.43;;;37.72;;
37785;SDS011;23625;48.784;9.336;2023-03-03T07:13:20;103.30;;;37.55;;
37785;SDS011;23625;48.784;9.336;2023-03-03T07:15:51;99.65;;;35.65;;
37785;SDS011;23625;48.784;9.336;2023-03-03T07:18:35;105.43;;;36.70;;
37785;SDS011;23625;48.784;9.336;2023-03-03T07:23:50;108.68;;;37.92;;
37785;SDS011;23625;48.784;9.336;2023-03-03T07:26:38;111.68;;;37.10;;
37785;SDS011;23625;48.784;9.336;2023-03-03T07:29:23;108.45;;;36.60;;
37785;SDS011;23625;48.784;9.336;2023-03-03T07:31:50;94.68;;;36.80;;
37785;SDS011;23625;48.784;9.336;2023-03-03T07:34:26;105.22;;;36.65;;
37785;SDS011;23625;48.784;9.336;2023-03-03T07:39:41;99.95;;;35.80;;
37785;SDS011;23625;48.784;9.336;2023-03-03T07:44:57;108.30;;;36.03;;
37785;SDS011;23625;48.784;9.336;2023-03-03T07:47:30;103.03;;;38.65;;
37785;SDS011;23625;48.784;9.336;2023-03-03T07:50:07;103.03;;;35.88;;
37785;SDS011;23625;48.784;9.336;2023-03-03T07:52:41;115.15;;;38.35;;
37785;SDS011;23625;48.784;9.336;2023-03-03T07:57:52;99.80;;;36.78;;
37785;SDS011;23625;48.784;9.336;2023-03-03T08:08:01;89.32;;;34.75;;
37785;SDS011;23625;48.784;9.336;2023-03-03T08:10:49;93.53;;;35.28;;
37785;SDS011;23625;48.784;9.336;2023-03-03T08:13:21;105.25;;;37.83;;
37785;SDS011;23625;48.784;9.336;2023-03-03T08:16:03;121.10;;;45.92;;
37785;SDS011;23625;48.784;9.336;2023-03-03T08:18:49;126.18;;;45.15;;
37785;SDS011;23625;48.784;9.336;2023-03-03T08:21:24;93.97;;;36.30;;
37785;SDS011;23625;48.784;9.336;2023-03-03T08:23:51;99.85;;;36.15;;
37785;SDS011;23625;48.784;9.336;2023-03-03T08:26:21;103.18;;;34.00;;
37785;SDS011;23625;48.784;9.336;2023-03-03T08:28:47;100.50;;;36.67;;
37785;SDS011;23625;48.784;9.336;2023-03-03T08:31:13;85.07;;;31.42;;
37785;SDS011;23625;48.784;9.336;2023-03-03T08:33:39;87.13;;;33.55;;
37785;SDS011;23625;48.784;9.336;2023-03-03T08:36:05;87.35;;;32.40;;
37785;SDS011;23625;48.784;9.336;2023-03-03T08:38:31;88.28;;;33.05;;
37785;SDS011;23625;48.784;9.336;2023-03-03T08:40:58;86.43;;;32.83;;
37785;SDS011;23625;48.784;9.336;2023-03-03T08:43:24;80.68;;;31.25;;
37785;SDS011;23625;48.784;9.336;2023-03-03T08:45:51;83.70;;;30.98;;
37785;SDS011;23625;48.784;9.336;2023-03-03T08:48:18;90.80;;;32.58;;
37785;SDS011;23625;48.784;9.336;2023-03-03T08:50:44;71.88;;;28.58;;
37785;SDS011;23625;48.784;9.336;2023-03-03T08:53:11;74.25;;;27.58;;
37785;SDS011;23625;48.784;9.336;2023-03-03T08:55:38;91.00;;;34.53;;
37785;SDS011;23625;48.784;9.336;2023-03-03T08:58:04;69.72;;;27.02;;
37785;SDS011;23625;48.784;9.336;2023-03-03T09:00:29;73.07;;;27.90;;
37785;SDS011;23625;48.784;9.336;2023-03-03T09:02:55;76.85;;;28.15;;
37785;SDS011;23625;48.784;9.336;2023-03-03T09:05:21;64.03;;;27.40;;
37785;SDS011;23625;48.784;9.336;2023-03-03T09:07:49;73.43;;;28.85;;
37785;SDS011;23625;48.784;9.336;2023-03-03T09:10:18;77.68;;;28.20;;
37785;SDS011;23625;48.784;9.336;2023-03-03T09:12:51;68.95;;;26.92;;
37785;SDS011;23625;48.784;9.336;2023-03-03T09:15:24;76.85;;;30.40;;
37785;SDS011;23625;48.784;9.336;2023-03-03T09:17:57;75.38;;;28.15;;
37785;SDS011;23625;48.784;9.336;2023-03-03T09:22:57;67.47;;;26.98;;
37785;SDS011;23625;48.784;9.336;2023-03-03T09:25:40;69.18;;;27.98;;
37785;SDS011;23625;48.784;9.336;2023-03-03T09:28:11;87.63;;;30.45;;
37785;SDS011;23625;48.784;9.336;2023-03-03T09:30:50;79.03;;;28.92;;
37785;SDS011;23625;48.784;9.336;2023-03-03T09:33:27;71.25;;;26.85;;
37785;SDS011;23625;48.784;9.336;2023-03-03T09:36:11;74.93;;;27.70;;
37785;SDS011;23625;48.784;9.336;2023-03-03T09:38:47;79.68;;;29.10;;
37785;SDS011;23625;48.784;9.336;2023-03-03T09:47:21;76.68;;;28.35;;
37785;SDS011;23625;48.784;9.336;2023-03-03T09:52:32;69.47;;;28.00;;
37785;SDS011;23625;48.784;9.336;2023-03-03T10:12:18;73.88;;;30.95;;
37785;SDS011;23625;48.784;9.336;2023-03-03T10:20:35;74.03;;;28.70;;
37785;SDS011;23625;48.784;9.336;2023-03-03T10:29:16;75.53;;;30.58;;
37785;SDS011;23625;48.784;9.336;2023-03-03T10:32:00;75.60;;;30.15;;
37785;SDS011;23625;48.784;9.336;2023-03-03T10:37:25;83.75;;;32.10;;
37785;SDS011;23625;48.784;9.336;2023-03-03T11:02:02;79.78;;;30.08;;
37785;SDS011;23625;48.784;9.336;2023-03-03T11:23:34;78.32;;;31.95;;
37785;SDS011;23625;48.784;9.336;2023-03-03T11:26:11;75.72;;;32.63;;
37785;SDS011;23625;48.784;9.336;2023-03-03T11:29:19;78.15;;;32.05;;
37785;SDS011;23625;48.784;9.336;2023-03-03T11:40:21;74.63;;;29.73;;
37785;SDS011;23625;48.784;9.336;2023-03-03T11:45:54;69.07;;;30.33;;
37785;SDS011;23625;48.784;9.336;2023-03-03T11:48:32;74.32;;;28.20;;
37785;SDS011;23625;48.784;9.336;2023-03-03T11:51:16;62.28;;;28.40;;
37785;SDS011;23625;48.784;9.336;2023-03-03T11:54:06;65.18;;;27.80;;
37785;SDS011;23625;48.784;9.336;2023-03-03T11:56:41;65.53;;;27.92;;
37785;SDS011;23625;48.784;9.336;2023-03-03T12:05:40;70.20;;;27.50;;
37785;SDS011;23625;48.784;9.336;2023-03-03T12:10:54;60.15;;;27.08;;
37785;SDS011;23625;48.784;9.336;2023-03-03T12:16:03;68.82;;;29.58;;
37785;SDS011;23625;48.784;9.336;2023-03-03T12:18:46;64.00;;;27.67;;
37785;SDS011;23625;48.784;9.336;2023-03-03T12:21:32;68.88;;;29.52;;
37785;SDS011;23625;48.784;9.336;2023-03-03T12:24:28;64.07;;;29.00;;
37785;SDS011;23625;48.784;9.336;2023-03-03T12:29:44;56.75;;;26.67;;
37785;SDS011;23625;48.784;9.336;2023-03-03T12:32:27;62.05;;;27.90;;
37785;SDS011;23625;48.784;9.336;2023-03-03T12:40:24;60.75;;;28.02;;
37785;SDS011;23625;48.784;9.336;2023-03-03T12:43:16;57.80;;;27.20;;
37785;SDS011;23625;48.784;9.336;2023-03-03T12:48:42;55.97;;;26.42;;
37785;SDS011;23625;48.784;9.336;2023-03-03T12:51:14;56.53;;;24.45;;
37785;SDS011;23625;48.784;9.336;2023-03-03T12:54:18;56.63;;;26.80;;
37785;SDS011;23625;48.784;9.336;2023-03-03T13:02:24;53.92;;;25.35;;
37785;SDS011;23625;48.784;9.336;2023-03-03T13:05:01;55.83;;;25.45;;
37785;SDS011;23625;48.784;9.336;2023-03-03T13:10:26;65.10;;;25.90;;
37785;SDS011;23625;48.784;9.336;2023-03-03T13:13:02;54.13;;;25.95;;
37785;SDS011;23625;48.784;9.336;2023-03-03T13:18:29;51.00;;;25.30;;
37785;SDS011;23625;48.784;9.336;2023-03-03T13:21:24;62.03;;;24.05;;
37785;SDS011;23625;48.784;9.336;2023-03-03T13:24:34;56.38;;;24.10;;
37785;SDS011;23625;48.784;9.336;2023-03-03T13:27:11;53.58;;;24.95;;
37785;SDS011;23625;48.784;9.336;2023-03-03T13:29:43;54.20;;;24.02;;
37785;SDS011;23625;48.784;9.336;2023-03-03T13:32:34;50.45;;;24.48;;
37785;SDS011;23625;48.784;9.336;2023-03-03T13:35:15;55.20;;;24.00;;
37785;SDS011;23625;48.784;9.336;2023-03-03T13:38:01;53.42;;;23.77;;
37785;SDS011;23625;48.784;9.336;2023-03-03T13:40:44;54.10;;;23.73;;
37785;SDS011;23625;48.784;9.336;2023-03-03T13:43:20;54.10;;;23.33;;
37785;SDS011;23625;48.784;9.336;2023-03-03T13:52:08;55.55;;;24.02;;
37785;SDS011;23625;48.784;9.336;2023-03-03T13:57:50;56.63;;;24.08;;
37785;SDS011;23625;48.784;9.336;2023-03-03T14:03:20;50.97;;;23.85;;
37785;SDS011;23625;48.784;9.336;2023-03-03T14:05:55;55.08;;;24.48;;
37785;SDS011;23625;48.784;9.336;2023-03-03T14:16:49;53.53;;;24.33;;
37785;SDS011;23625;48.784;9.336;2023-03-03T14:19:16;52.08;;;25.95;;
37785;SDS011;23625;48.784;9.336;2023-03-03T14:27:37;55.83;;;25.00;;
37785;SDS011;23625;48.784;9.336;2023-03-03T14:35:29;52.72;;;23.65;;
37785;SDS011;23625;48.784;9.336;2023-03-03T14:38:10;51.08;;;23.95;;
37785;SDS011;23625;48.784;9.336;2023-03-03T14:40:44;52.60;;;25.25;;
37785;SDS011;23625;48.784;9.336;2023-03-03T14:43:19;52.55;;;25.63;;
37785;SDS011;23625;48.784;9.336;2023-03-03T14:45:48;60.60;;;25.08;;
37785;SDS011;23625;48.784;9.336;2023-03-03T14:50:53;59.72;;;26.35;;
37785;SDS011;23625;48.784;9.336;2023-03-03T14:56:12;56.22;;;25.40;;
37785;SDS011;23625;48.784;9.336;2023-03-03T14:58:51;59.35;;;25.25;;
37785;SDS011;23625;48.784;9.336;2023-03-03T15:01:36;55.72;;;23.02;;
37785;SDS011;23625;48.784;9.336;2023-03-03T15:09:19;58.53;;;26.52;;
37785;SDS011;23625;48.784;9.336;2023-03-03T15:11:52;87.55;;;26.10;;
37785;SDS011;23625;48.784;9.336;2023-03-03T15:14:20;55.35;;;24.90;;
37785;SDS011;23625;48.784;9.336;2023-03-03T15:16:53;62.25;;;25.98;;
37785;SDS011;23625;48.784;9.336;2023-03-03T15:19:27;55.92;;;24.65;;
37785;SDS011;23625;48.784;9.336;2023-03-03T15:22:06;59.00;;;25.60;;
37785;SDS011;23625;48.784;9.336;2023-03-03T15:24:49;64.85;;;25.95;;
37785;SDS011;23625;48.784;9.336;2023-03-03T15:36:07;57.90;;;25.17;;
37785;SDS011;23625;48.784;9.336;2023-03-03T15:41:25;51.83;;;23.75;;
37785;SDS011;23625;48.784;9.336;2023-03-03T15:44:21;59.42;;;25.17;;
37785;SDS011;23625;48.784;9.336;2023-03-03T15:47:32;59.72;;;25.83;;
37785;SDS011;23625;48.784;9.336;2023-03-03T15:50:27;57.35;;;25.63;;
37785;SDS011;23625;48.784;9.336;2023-03-03T15:53:25;58.15;;;25.25;;
37785;SDS011;23625;48.784;9.336;2023-03-03T15:56:19;62.00;;;27.55;;
37785;SDS011;23625;48.784;9.336;2023-03-03T16:01:25;71.50;;;25.98;;
37785;SDS011;23625;48.784;9.336;2023-03-03T16:04:19;62.88;;;25.95;;
37785;SDS011;23625;48.784;9.336;2023-03-03T16:09:51;67.15;;;27.05;;
37785;SDS011;23625;48.784;9.336;2023-03-03T16:17:58;62.65;;;26.65;;
37785;SDS011;23625;48.784;9.336;2023-03-03T16:40:21;60.25;;;25.23;;
37785;SDS011;23625;48.784;9.336;2023-03-03T16:42:31;51.53;;;24.75;;
37785;SDS011;23625;48.784;9.336;2023-03-03T16:50:26;58.15;;;23.85;;
37785;SDS011;23625;48.784;9.336;2023-03-03T16:58:58;51.00;;;22.23;;
37785;SDS011;23625;48.784;9.336;2023-03-03T17:07:14;63.03;;;23.27;;
37785;SDS011;23625;48.784;9.336;2023-03-03T17:10:08;52.47;;;23.02;;
37785;SDS011;23625;48.784;9.336;2023-03-03T17:13:08;58.75;;;24.35;;
37785;SDS011;23625;48.784;9.336;2023-03-03T17:15:53;67.60;;;28.05;;
37785;SDS011;23625;48.784;9.336;2023-03-03T17:21:15;53.88;;;24.83;;
37785;SDS011;23625;48.784;9.336;2023-03-03T17:30:05;61.85;;;25.52;;
37785;SDS011;23625;48.784;9.336;2023-03-03T17:41:16;57.67;;;24.08;;
37785;SDS011;23625;48.784;9.336;2023-03-03T17:43:55;59.63;;;24.73;;
37785;SDS011;23625;48.784;9.336;2023-03-03T17:49:36;59.38;;;24.90;;
37785;SDS011;23625;48.784;9.336;2023-03-03T17:55:06;96.13;;;36.45;;
37785;SDS011;23625;48.784;9.336;2023-03-03T17:58:04;63.70;;;26.20;;
37785;SDS011;23625;48.784;9.336;2023-03-03T18:04:21;60.33;;;25.77;;
37785;SDS011;23625;48.784;9.336;2023-03-03T18:06:50;69.93;;;27.85;;
37785;SDS011;23625;48.784;9.336;2023-03-03T18:14:52;73.82;;;27.73;;
37785;SDS011;23625;48.784;9.336;2023-03-03T18:22:50;59.17;;;25.15;;
37785;SDS011;23625;48.784;9.336;2023-03-03T18:25:17;70.45;;;27.95;;
37785;SDS011;23625;48.784;9.336;2023-03-03T18:27:47;81.90;;;32.53;;
37785;SDS011;23625;48.784;9.336;2023-03-03T18:31:14;105.88;;;38.30;;
37785;SDS011;23625;48.784;9.336;2023-03-03T18:33:31;73.18;;;29.10;;
37785;SDS011;23625;48.784;9.336;2023-03-03T18:38:40;63.53;;;26.27;;
37785;SDS011;23625;48.784;9.336;2023-03-03T18:41:11;66.57;;;24.95;;
37785;SDS011;23625;48.784;9.336;2023-03-03T18:53:59;64.65;;;25.48;;
37785;SDS011;23625;48.784;9.336;2023-03-03T19:04:52;72.40;;;26.23;;
37785;SDS011;23625;48.784;9.336;2023-03-03T19:18:18;79.85;;;26.95;;
37785;SDS011;23625;48.784;9.336;2023-03-03T19:20:48;77.15;;;27.50;;
37785;SDS011;23625;48.784;9.336;2023-03-03T19:23:30;77.40;;;27.33;;
37785;SDS011;23625;48.784;9.336;2023-03-03T19:26:25;77.28;;;27.25;;
37785;SDS011;23625;48.784;9.336;2023-03-03T19:31:56;72.72;;;28.08;;
37785;SDS011;23625;48.784;9.336;2023-03-03T19:35:03;108.00;;;35.10;;
37785;SDS011;23625;48.784;9.336;2023-03-03T19:41:01;88.00;;;29.85;;
37785;SDS011;23625;48.784;9.336;2023-03-03T19:43:45;81.13;;;28.90;;
37785;SDS011;23625;48.784;9.336;2023-03-03T19:51:40;75.07;;;27.45;;
37785;SDS011;23625;48.784;9.336;2023-03-03T20:03:10;87.10;;;28.40;;
37785;SDS011;23625;48.784;9.336;2023-03-03T20:14:23;94.43;;;31.25;;
37785;SDS011;23625;48.784;9.336;2023-03-03T20:17:11;98.13;;;33.80;;
37785;SDS011;23625;48.784;9.336;2023-03-03T20:25:54;82.70;;;32.25;;
37785;SDS011;23625;48.784;9.336;2023-03-03T20:34:06;84.93;;;31.73;;
37785;SDS011;23625;48.784;9.336;2023-03-03T20:50:16;102.63;;;36.58;;
37785;SDS011;23625;48.784;9.336;2023-03-03T21:01:04;80.80;;;28.23;;
37785;SDS011;23625;48.784;9.336;2023-03-03T21:03:39;86.53;;;29.88;;
37785;SDS011;23625;48.784;9.336;2023-03-03T21:06:13;90.03;;;32.35;;
37785;SDS011;23625;48.784;9.336;2023-03-03T21:08:54;84.70;;;30.20;;
37785;SDS011;23625;48.784;9.336;2023-03-03T21:13:49;86.55;;;30.60;;
37785;SDS011;23625;48.784;9.336;2023-03-03T21:19:02;80.18;;;29.98;;
37785;SDS011;23625;48.784;9.336;2023-03-03T21:24:01;90.90;;;31.00;;
37785;SDS011;23625;48.784;9.336;2023-03-03T21:26:43;86.40;;;30.67;;
37785;SDS011;23625;48.784;9.336;2023-03-03T21:29:18;86.38;;;30.83;;
37785;SDS011;23625;48.784;9.336;2023-03-03T21:31:50;85.65;;;30.92;;
37785;SDS011;23625;48.784;9.336;2023-03-03T21:34:21;86.57;;;30.52;;
37785;SDS011;23625;48.784;9.336;2023-03-03T21:36:48;80.93;;;29.70;;
37785;SDS011;23625;48.784;9.336;2023-03-03T21:39:22;91.93;;;33.13;;